Arley, AL

6:47 AM CDT on May 26, 2015 (GMT -0500)
Upshaw Community | | Change Station
CLOSE
Current Station
Personal Weather Station
Location: Addison, AL
Elevation: 869 ft
Nearby Weather Stations

Elev 869 ft 34.26 °N, 87.16 °W | Updated 7 minutes ago

Partly Cloudy
Partly Cloudy
68.5 °F
Feels Like 68.5 °F
N
2.2
Wind Variable Wind from South

Today
High -- | Low -- °F
--% Chance of Precip.
Yesterday
High -- | Low -- °F
Precip. -- in
5:40 AM 7:51 PM
First Quarter, 57% visible
Pressure 30.16 in
Visibility 10.0 miles
Clouds Mostly Cloudy 500 ft
Overcast 900 ft
Dew Point 68 °F
Humidity 99%
Rainfall 0.00 in
Snow Depth Not available.
UV 0 out of 12
Pollen .70 out of 12
Air Quality Not available.
Flu Activity Sporadic
METAR K1M4 261056Z AUTO 15008G15KT 10SM BKN005 OVC009 19/19 A3013 RMK AO2 T01940194 BKN V OVC SLP212

More Conditions Fewer Conditions

Pressure 30.16 in
Visibility 10.0 miles
Clouds Mostly Cloudy 500 ft
Overcast 900 ft
Dew Point 68 °F
Humidity 99%
Rainfall 0.00 in
Snow Depth Not available.
UV 0 out of 12
Pollen .70 out of 12
Air Quality Not available.
Flu Activity Sporadic
METAR K1M4 261056Z AUTO 15008G15KT 10SM BKN005 OVC009 19/19 A3013 RMK AO2 T01940194 BKN V OVC SLP212

More Conditions Fewer Conditions

10-Day Weather Forecast

Almanac

Astronomy

May. 26, 2015 Rise Set
Actual Time
Civil Twilight
Nautical Twilight
Astronomical Twilight
Moon
Length of Visible Light
Length of Day
Tomorrow will be .
, % of the Moon is Illuminated

Today's Extremes

State Highs State Lows

Community

WunderPhotos

Upload Photos

1,824,304 photos uploaded!

WunderBlogs® & News

Nearby

Air Quality

  Air Quality AQ Index Pollutant
Not available.

Snow Depth

Station Depth Elevation

Earthquake Activity

City Distance Mag. Time & Date
Minimum magnitude displayed is 2.5.

Coastal Water Temperatures

Place Temperature

Stations

Nearby Weather Stations

Station Location Temp. Windchill Dew Point Humidity Wind Precip. Elev Updated Type